Time;durP1;ratioP1;P1;durP2;ratioP2;P2;SDS_P1;SDS_P2;PMS_P1;PMS_P2;Temp;Humidity;BMP_temperature;BMP_pressure;BME280_temperature;BME280_humidity;BME280_pressure;Samples;Min_cycle;Max_cycle;Signal;HPM_P1;HPM_P2
2024/01/20 00:02:24;;;;;;;22.70;11.05;;;;;;;-4.44;100.00;98320.16;5048294;28;20049;-61
2024/01/20 00:04:51;;;;;;;25.90;10.75;;;;;;;-4.30;100.00;98318.97;5034735;28;20033;-61
2024/01/20 00:07:19;;;;;;;25.52;10.77;;;;;;;-4.20;100.00;98319.00;5041686;28;20474;-60
2024/01/20 00:09:45;;;;;;;28.23;12.65;;;;;;;-4.21;100.00;98306.72;5035982;28;20187;-61
2024/01/20 00:12:17;;;;;;;30.17;12.70;;;;;;;-4.36;100.00;98303.63;5045523;28;20048;-61
2024/01/20 00:14:44;;;;;;;25.60;13.05;;;;;;;-4.23;100.00;98298.13;5043327;28;20037;-60
2024/01/20 00:17:12;;;;;;;22.80;11.10;;;;;;;-4.29;100.00;98293.34;5042304;28;20459;-61
2024/01/20 00:19:51;;;;;;;28.58;13.18;;;;;;;-4.27;100.00;98297.56;5039986;28;20460;-60
2024/01/20 00:22:21;;;;;;;25.73;12.93;;;;;;;-4.29;100.00;98301.28;5040108;28;20056;-60
2024/01/20 00:24:49;;;;;;;24.08;11.15;;;;;;;-4.41;100.00;98295.25;5034735;28;20055;-60
2024/01/20 00:27:16;;;;;;;22.58;12.02;;;;;;;-4.47;100.00;98291.34;5038980;28;20060;-61
2024/01/20 00:29:43;;;;;;;25.88;12.55;;;;;;;-4.41;100.00;98301.38;5043121;28;20059;-60
2024/01/20 00:32:10;;;;;;;26.65;12.95;;;;;;;-4.40;100.00;98289.84;5039554;28;20065;-61
2024/01/20 00:34:37;;;;;;;26.05;12.45;;;;;;;-4.46;100.00;98298.31;5044315;28;20512;-60
2024/01/20 00:37:23;;;;;;;23.67;13.35;;;;;;;-4.42;100.00;98305.00;5037490;28;20090;-61
2024/01/20 00:39:50;;;;;;;20.52;11.50;;;;;;;-4.32;100.00;98305.03;5036374;28;20119;-61
2024/01/20 00:42:16;;;;;;;28.77;12.73;;;;;;;-4.33;100.00;98304.22;5045453;28;20068;-61
2024/01/20 00:44:43;;;;;;;25.67;11.13;;;;;;;-4.37;100.00;98317.81;5047762;28;20067;-61
2024/01/20 00:47:10;;;;;;;30.50;14.93;;;;;;;-4.42;100.00;98325.31;5043852;28;20120;-62
2024/01/20 00:49:37;;;;;;;23.00;12.32;;;;;;;-4.48;100.00;98321.38;5037030;28;20037;-61
2024/01/20 00:52:04;;;;;;;27.30;14.70;;;;;;;-4.53;100.00;98329.72;5048876;28;20041;-60
2024/01/20 00:54:30;;;;;;;28.40;14.25;;;;;;;-4.47;100.00;98325.69;5046619;28;20421;-61
2024/01/20 00:56:56;;;;;;;31.77;15.32;;;;;;;-4.58;100.00;98316.91;5042107;28;20040;-61
2024/01/20 00:59:23;;;;;;;32.80;13.90;;;;;;;-4.53;100.00;98320.97;5044377;28;20041;-61
2024/01/20 01:01:50;;;;;;;32.55;14.13;;;;;;;-4.55;100.00;98318.44;5046548;28;20036;-61
2024/01/20 01:04:16;;;;;;;32.03;14.63;;;;;;;-4.51;100.00;98311.91;5044628;28;20207;-61
2024/01/20 01:06:43;;;;;;;27.13;13.25;;;;;;;-4.45;100.00;98307.91;5043064;28;20041;-61
2024/01/20 01:09:09;;;;;;;25.60;12.25;;;;;;;-4.51;100.00;98313.72;5044665;28;20501;-60
2024/01/20 01:11:36;;;;;;;26.13;15.05;;;;;;;-4.68;100.00;98313.38;5037480;28;20216;-61
2024/01/20 01:14:03;;;;;;;29.05;14.63;;;;;;;-4.66;100.00;98319.34;5040283;28;20056;-61
2024/01/20 01:16:30;;;;;;;35.58;14.63;;;;;;;-4.51;100.00;98326.94;5044794;28;20067;-61
2024/01/20 01:18:56;;;;;;;28.13;14.07;;;;;;;-4.44;100.00;98331.56;5040053;28;20542;-61
2024/01/20 01:21:23;;;;;;;35.75;15.63;;;;;;;-4.38;100.00;98322.28;5036056;28;20056;-61
2024/01/20 01:23:50;;;;;;;31.63;15.25;;;;;;;-4.34;100.00;98333.44;5044044;28;20247;-61
2024/01/20 01:26:17;;;;;;;31.63;14.23;;;;;;;-4.28;100.00;98334.72;5042066;28;20141;-60
2024/01/20 01:28:43;;;;;;;28.60;13.50;;;;;;;-4.32;100.00;98332.31;5042380;28;20038;-59
2024/01/20 01:31:10;;;;;;;29.75;13.68;;;;;;;-4.41;100.00;98337.56;5043542;28;20045;-60
2024/01/20 01:33:37;;;;;;;25.95;11.88;;;;;;;-4.58;100.00;98340.69;5037209;28;20048;-61
2024/01/20 01:36:04;;;;;;;24.42;13.02;;;;;;;-4.59;100.00;98344.31;5041694;28;20411;-61
2024/01/20 01:38:30;;;;;;;23.58;11.98;;;;;;;-4.47;100.00;98349.50;5040541;28;20041;-61
2024/01/20 01:40:57;;;;;;;26.90;10.75;;;;;;;-4.55;100.00;98344.88;5040091;28;20517;-61
2024/01/20 01:43:25;;;;;;;23.27;11.25;;;;;;;-4.51;100.00;98335.72;5043645;28;20045;-60
2024/01/20 01:45:52;;;;;;;25.75;11.13;;;;;;;-4.52;100.00;98339.34;5040877;28;20075;-61
2024/01/20 01:48:19;;;;;;;18.35;10.73;;;;;;;-4.64;100.00;98338.56;5033782;28;20069;-60
2024/01/20 01:50:46;;;;;;;23.75;12.27;;;;;;;-4.75;100.00;98341.28;5038832;28;20046;-60
2024/01/20 01:53:13;;;;;;;19.10;10.63;;;;;;;-4.70;100.00;98352.31;5041785;28;20049;-61
2024/01/20 01:55:40;;;;;;;28.50;12.07;;;;;;;-4.84;100.00;98359.59;5041735;28;20519;-60
2024/01/20 01:58:07;;;;;;;20.52;11.23;;;;;;;-4.79;100.00;98355.72;5038503;28;20419;-61
2024/01/20 02:00:33;;;;;;;22.42;12.93;;;;;;;-4.93;100.00;98346.31;5040180;28;20048;-61
2024/01/20 02:03:01;;;;;;;26.13;11.65;;;;;;;-4.99;100.00;98345.00;5036936;28;20567;-60
2024/01/20 02:05:28;;;;;;;21.98;11.07;;;;;;;-5.07;100.00;98350.94;5034977;28;20501;-60
2024/01/20 02:07:57;;;;;;;22.55;12.13;;;;;;;-5.08;100.00;98351.91;5042441;28;20033;-61
2024/01/20 02:10:24;;;;;;;25.20;11.43;;;;;;;-4.93;100.00;98346.31;5032655;28;20053;-60
2024/01/20 02:12:51;;;;;;;24.80;12.65;;;;;;;-4.91;100.00;98336.47;5030051;28;20067;-60
2024/01/20 02:15:18;;;;;;;24.98;12.90;;;;;;;-5.04;100.00;98342.78;5036758;28;20362;-60
2024/01/20 02:17:52;;;;;;;24.65;11.48;;;;;;;-5.03;100.00;98333.88;5029910;28;20044;-60
2024/01/20 02:20:19;;;;;;;22.85;11.43;;;;;;;-4.97;100.00;98340.47;5041112;28;20037;-60
2024/01/20 02:22:46;;;;;;;25.85;13.02;;;;;;;-4.92;100.00;98338.25;5036264;28;20044;-61
2024/01/20 02:25:12;;;;;;;24.38;12.30;;;;;;;-4.92;100.00;98346.19;5031633;28;20038;-60
2024/01/20 02:27:39;;;;;;;28.65;11.98;;;;;;;-5.02;100.00;98350.56;5040607;28;20037;-60
2024/01/20 02:30:06;;;;;;;27.40;13.52;;;;;;;-4.95;100.00;98357.00;5022223;28;20041;-61
2024/01/20 02:32:33;;;;;;;24.83;12.75;;;;;;;-4.94;100.00;98363.13;5034579;28;20041;-61
2024/01/20 02:35:00;;;;;;;20.05;9.80;;;;;;;-4.97;100.00;98367.69;5036911;28;20397;-61
2024/01/20 02:37:26;;;;;;;21.63;10.63;;;;;;;-5.10;100.00;98359.97;5040399;28;20367;-61
2024/01/20 02:39:53;;;;;;;23.30;10.93;;;;;;;-5.05;100.00;98364.03;5040405;28;20035;-61
2024/01/20 02:42:19;;;;;;;23.73;10.63;;;;;;;-4.98;100.00;98365.19;5036983;28;20041;-60
2024/01/20 02:44:46;;;;;;;21.60;11.63;;;;;;;-4.97;100.00;98362.41;5036341;28;20482;-61
2024/01/20 02:47:12;;;;;;;20.50;11.38;;;;;;;-5.00;100.00;98372.41;5042276;28;20542;-61
2024/01/20 02:49:39;;;;;;;23.35;10.55;;;;;;;-5.05;100.00;98374.59;5044249;28;20118;-62
2024/01/20 02:52:06;;;;;;;23.33;11.85;;;;;;;-4.98;100.00;98376.59;5044021;28;20064;-61
2024/01/20 02:54:32;;;;;;;22.90;11.23;;;;;;;-4.92;100.00;98387.59;5046017;28;20451;-61
2024/01/20 02:56:59;;;;;;;16.42;9.10;;;;;;;-4.96;100.00;98377.31;5026931;28;20037;-61
2024/01/20 02:59:26;;;;;;;19.08;10.52;;;;;;;-4.95;100.00;98380.78;5032097;28;20201;-61
2024/01/20 03:01:52;;;;;;;19.00;10.85;;;;;;;-5.00;100.00;98380.31;5029893;28;20088;-60
2024/01/20 03:04:19;;;;;;;21.27;10.15;;;;;;;-5.02;100.00;98375.16;5030946;28;20049;-61
2024/01/20 03:06:46;;;;;;;22.65;10.52;;;;;;;-4.95;100.00;98370.22;5039610;28;20044;-61
2024/01/20 03:09:15;;;;;;;20.92;10.35;;;;;;;-4.96;100.00;98373.81;5037430;28;20046;-61
2024/01/20 03:11:42;;;;;;;21.63;10.93;;;;;;;-5.08;100.00;98362.47;5039037;28;20279;-60
2024/01/20 03:14:10;;;;;;;22.02;11.45;;;;;;;-5.06;100.00;98370.28;5038314;28;20037;-60
2024/01/20 03:16:37;;;;;;;22.50;11.23;;;;;;;-5.22;100.00;98379.47;5046146;28;20048;-61
2024/01/20 03:19:05;;;;;;;17.70;9.27;;;;;;;-5.18;100.00;98369.47;5043280;28;20037;-61
2024/01/20 03:21:33;;;;;;;19.60;10.38;;;;;;;-5.10;100.00;98369.69;5045304;28;20077;-61
2024/01/20 03:24:00;;;;;;;21.15;10.10;;;;;;;-5.14;100.00;98371.75;5044811;28;20049;-61
2024/01/20 03:26:26;;;;;;;21.05;11.05;;;;;;;-5.01;100.00;98370.75;5036017;28;20041;-61
2024/01/20 03:28:53;;;;;;;26.67;12.63;;;;;;;-5.13;100.00;98372.56;5046537;28;20047;-60
2024/01/20 03:31:19;;;;;;;21.80;9.98;;;;;;;-5.11;100.00;98381.22;5040662;28;20036;-61
2024/01/20 03:33:46;;;;;;;23.63;10.63;;;;;;;-5.11;100.00;98379.44;5034119;28;20127;-60
2024/01/20 03:36:13;;;;;;;24.20;10.52;;;;;;;-5.06;100.00;98384.31;5030133;28;20081;-61
2024/01/20 03:38:39;;;;;;;21.90;10.77;;;;;;;-5.05;100.00;98387.81;5036331;28;20553;-61
2024/01/20 03:41:06;;;;;;;17.60;10.43;;;;;;;-4.98;100.00;98387.16;5038317;28;20036;-62
2024/01/20 03:43:32;;;;;;;20.38;10.45;;;;;;;-4.97;100.00;98391.47;5043099;28;20055;-62
2024/01/20 03:45:59;;;;;;;20.30;10.93;;;;;;;-4.93;100.00;98391.22;5040453;28;21072;-61
2024/01/20 03:48:25;;;;;;;20.20;10.52;;;;;;;-5.04;100.00;98400.03;5043964;28;20051;-61
2024/01/20 03:50:52;;;;;;;21.88;11.25;;;;;;;-5.03;100.00;98397.28;5033414;28;20037;-60
2024/01/20 03:53:19;;;;;;;23.77;12.07;;;;;;;-4.87;100.00;98401.28;5044026;28;20106;-60
2024/01/20 03:55:45;;;;;;;24.27;10.23;;;;;;;-4.83;100.00;98397.44;5043574;28;20041;-61
2024/01/20 03:58:12;;;;;;;23.45;11.50;;;;;;;-4.97;100.00;98401.22;5033386;28;20203;-61
2024/01/20 04:00:38;;;;;;;22.67;11.15;;;;;;;-4.93;100.00;98397.34;5045468;28;20045;-61
2024/01/20 04:03:05;;;;;;;21.05;12.43;;;;;;;-4.88;100.00;98399.59;5029444;28;20046;-61
2024/01/20 04:05:31;;;;;;;23.08;10.98;;;;;;;-4.83;100.00;98398.25;5029617;28;20045;-60
2024/01/20 04:07:58;;;;;;;25.75;12.68;;;;;;;-4.85;100.00;98392.28;5039849;28;20059;-60
2024/01/20 04:10:25;;;;;;;25.60;12.52;;;;;;;-4.79;100.00;98395.38;5043396;28;20471;-61
2024/01/20 04:12:52;;;;;;;25.25;11.27;;;;;;;-4.79;100.00;98390.06;5044920;28;20066;-61
2024/01/20 04:15:18;;;;;;;24.42;11.60;;;;;;;-4.81;100.00;98395.50;5046754;28;20124;-61
2024/01/20 04:17:45;;;;;;;25.45;12.73;;;;;;;-4.81;100.00;98399.91;5034250;28;20448;-61
2024/01/20 04:20:12;;;;;;;23.88;11.13;;;;;;;-4.84;100.00;98401.88;5040146;28;20041;-61
2024/01/20 04:22:39;;;;;;;23.38;12.30;;;;;;;-4.81;100.00;98402.56;5037838;28;20041;-61
2024/01/20 04:25:06;;;;;;;24.42;11.88;;;;;;;-4.83;100.00;98403.53;5041887;28;20056;-61
2024/01/20 04:27:33;;;;;;;23.02;11.90;;;;;;;-4.85;100.00;98402.00;5039689;28;20484;-60
2024/01/20 04:30:00;;;;;;;21.45;11.88;;;;;;;-4.98;100.00;98404.81;5032663;28;21122;-61
2024/01/20 04:32:27;;;;;;;20.20;10.00;;;;;;;-5.20;100.00;98408.38;5042120;28;20045;-61
2024/01/20 04:34:53;;;;;;;22.17;10.98;;;;;;;-5.31;100.00;98415.38;5034861;28;20060;-60
2024/01/20 04:37:20;;;;;;;19.20;9.73;;;;;;;-5.34;100.00;98413.00;5033162;28;20132;-61
2024/01/20 04:39:47;;;;;;;19.75;9.93;;;;;;;-5.39;100.00;98415.16;5039920;28;20037;-60
2024/01/20 04:42:13;;;;;;;23.02;10.35;;;;;;;-5.43;100.00;98411.94;5029852;28;20045;-61
2024/01/20 04:44:40;;;;;;;23.63;11.50;;;;;;;-5.43;100.00;98421.63;5042961;28;20041;-61
2024/01/20 04:47:06;;;;;;;25.00;12.60;;;;;;;-5.52;100.00;98415.31;5036821;28;20053;-58
2024/01/20 04:49:33;;;;;;;24.42;11.93;;;;;;;-5.56;100.00;98417.38;5048873;28;20122;-59
2024/01/20 04:52:01;;;;;;;22.73;11.18;;;;;;;-5.65;100.00;98413.66;5039401;28;20061;-58
2024/01/20 04:54:28;;;;;;;24.40;9.98;;;;;;;-5.71;100.00;98418.59;5033448;28;20183;-59
2024/01/20 04:56:57;;;;;;;22.92;11.90;;;;;;;-5.75;100.00;98424.09;5043212;28;20361;-58
2024/01/20 04:59:24;;;;;;;26.90;11.80;;;;;;;-5.78;100.00;98415.59;5038094;28;20037;-58
2024/01/20 05:01:52;;;;;;;21.38;10.55;;;;;;;-5.81;100.00;98418.47;5042301;28;20037;-58
2024/01/20 05:04:19;;;;;;;21.23;10.77;;;;;;;-5.88;100.00;98418.13;5050568;28;20045;-59
2024/01/20 05:06:46;;;;;;;25.55;12.35;;;;;;;-5.90;100.00;98427.97;5037306;28;20049;-58
2024/01/20 05:09:13;;;;;;;26.17;11.18;;;;;;;-6.01;100.00;98412.97;5044283;28;20492;-58
2024/01/20 05:11:40;;;;;;;20.15;10.07;;;;;;;-5.95;100.00;98420.41;5038122;28;20102;-58
2024/01/20 05:14:07;;;;;;;22.80;11.23;;;;;;;-6.04;100.00;98427.25;5042112;28;20044;-59
2024/01/20 05:16:34;;;;;;;20.27;10.38;;;;;;;-6.09;100.00;98415.41;5047521;28;20051;-59
2024/01/20 05:19:01;;;;;;;20.70;10.60;;;;;;;-6.15;100.00;98424.63;5043959;28;20045;-59
2024/01/20 05:21:28;;;;;;;21.63;10.75;;;;;;;-6.25;100.00;98428.91;5046791;28;20143;-59
2024/01/20 05:23:56;;;;;;;21.75;11.40;;;;;;;-6.32;100.00;98428.56;5044751;28;20097;-61
2024/01/20 05:26:23;;;;;;;23.67;11.32;;;;;;;-6.27;100.00;98435.16;5049265;28;20041;-62
2024/01/20 05:28:50;;;;;;;20.77;10.70;;;;;;;-6.22;100.00;98426.91;5036460;28;20045;-62
2024/01/20 05:31:17;;;;;;;25.65;12.15;;;;;;;-6.25;100.00;98429.78;5045919;28;20037;-61
2024/01/20 05:33:43;;;;;;;21.15;9.73;;;;;;;-6.20;100.00;98430.25;5044048;28;20626;-61
2024/01/20 05:36:12;;;;;;;23.58;11.63;;;;;;;-6.22;100.00;98440.09;5047156;28;20081;-61
2024/01/20 05:38:39;;;;;;;24.48;11.27;;;;;;;-6.31;100.00;98438.13;5044665;28;20037;-62
2024/01/20 05:41:07;;;;;;;23.92;12.27;;;;;;;-6.30;100.00;98448.56;5046063;28;20072;-61
2024/01/20 05:43:33;;;;;;;21.08;11.43;;;;;;;-6.27;100.00;98443.06;5041403;28;20052;-60
2024/01/20 05:46:04;;;;;;;24.35;10.88;;;;;;;-6.35;100.00;98442.81;5040184;28;20599;-60
2024/01/20 05:48:32;;;;;;;28.73;11.82;;;;;;;-6.42;100.00;98446.88;5046013;28;20496;-60
2024/01/20 05:50:59;;;;;;;23.55;10.63;;;;;;;-6.50;100.00;98452.72;5036753;28;20452;-60
2024/01/20 05:53:26;;;;;;;21.35;10.55;;;;;;;-6.51;100.00;98455.47;5041021;28;20049;-61
2024/01/20 05:55:52;;;;;;;31.40;11.90;;;;;;;-6.64;100.00;98458.22;5045790;28;20047;-61
2024/01/20 05:58:19;;;;;;;21.83;11.32;;;;;;;-6.64;100.00;98458.22;5041755;28;20040;-60
2024/01/20 06:00:45;;;;;;;22.80;11.13;;;;;;;-6.70;100.00;98448.97;5048252;28;20036;-61
2024/01/20 06:03:12;;;;;;;22.67;10.45;;;;;;;-6.70;100.00;98454.22;5043886;28;20037;-61
2024/01/20 06:05:38;;;;;;;24.50;10.35;;;;;;;-6.80;100.00;98454.06;5045082;28;20073;-61
2024/01/20 06:08:05;;;;;;;27.88;13.50;;;;;;;-6.75;100.00;98461.66;5044534;28;20047;-61
2024/01/20 06:10:32;;;;;;;22.52;10.55;;;;;;;-6.80;100.00;98462.84;5042615;28;20405;-62
2024/01/20 06:12:58;;;;;;;26.48;12.15;;;;;;;-6.79;100.00;98468.91;5042206;28;20045;-63
2024/01/20 06:15:25;;;;;;;24.15;11.05;;;;;;;-6.71;100.00;98465.75;5031103;28;20448;-62
2024/01/20 06:17:51;;;;;;;21.65;11.02;;;;;;;-6.73;100.00;98470.25;5035394;28;20504;-62
2024/01/20 06:20:19;;;;;;;23.75;11.70;;;;;;;-6.56;100.00;98483.00;5037470;28;20048;-62
2024/01/20 06:22:46;;;;;;;25.70;10.80;;;;;;;-6.58;100.00;98482.31;5038387;28;20041;-62
2024/01/20 06:25:13;;;;;;;24.83;10.80;;;;;;;-6.65;100.00;98483.69;5045488;28;20044;-55
2024/01/20 06:27:39;;;;;;;22.55;12.25;;;;;;;-6.73;100.00;98492.19;5036990;28;20037;-56
2024/01/20 06:30:06;;;;;;;23.95;11.60;;;;;;;-6.78;100.00;98489.06;5036862;28;20051;-57
2024/01/20 06:32:33;;;;;;;18.52;9.40;;;;;;;-6.84;100.00;98495.63;5043406;28;20114;-64
2024/01/20 06:34:59;;;;;;;22.88;10.70;;;;;;;-6.86;100.00;98499.31;5033072;28;20045;-59
2024/01/20 06:37:26;;;;;;;26.20;11.27;;;;;;;-6.86;100.00;98499.31;5049392;28;20098;-60
2024/01/20 06:39:53;;;;;;;29.48;12.68;;;;;;;-6.85;100.00;98493.09;5043413;28;20068;-61
2024/01/20 06:42:20;;;;;;;19.95;11.02;;;;;;;-6.79;100.00;98490.00;5040478;28;21028;-61
2024/01/20 06:44:47;;;;;;;22.92;10.35;;;;;;;-6.99;100.00;98497.59;5036597;28;20136;-61
2024/01/20 06:47:14;;;;;;;22.83;11.30;;;;;;;-6.97;100.00;98495.66;5039511;28;20037;-61
2024/01/20 06:49:41;;;;;;;25.95;11.13;;;;;;;-7.14;100.00;98503.94;5040137;28;20049;-62
2024/01/20 06:52:08;;;;;;;23.40;11.90;;;;;;;-7.19;100.00;98506.94;5038991;28;20082;-60
2024/01/20 06:54:35;;;;;;;22.00;10.60;;;;;;;-7.26;100.00;98511.78;5042873;28;20267;-61
2024/01/20 06:57:02;;;;;;;24.17;12.20;;;;;;;-7.47;100.00;98524.69;5044419;28;20136;-62
2024/01/20 06:59:28;;;;;;;20.27;10.30;;;;;;;-7.54;100.00;98521.66;5043798;28;20124;-61
2024/01/20 07:01:55;;;;;;;19.33;10.43;;;;;;;-7.79;100.00;98528.63;5043414;28;20037;-61
2024/01/20 07:04:21;;;;;;;20.25;10.45;;;;;;;-7.86;100.00;98533.47;5035406;28;20059;-62
2024/01/20 07:06:48;;;;;;;21.33;9.23;;;;;;;-8.18;100.00;98533.03;5038747;28;20047;-59
2024/01/20 07:09:15;;;;;;;23.52;10.80;;;;;;;-8.30;100.00;98532.09;5039513;28;20045;-61
2024/01/20 07:11:41;;;;;;;19.88;9.95;;;;;;;-8.35;100.00;98535.00;5040172;28;20058;-61
2024/01/20 07:14:08;;;;;;;26.70;12.10;;;;;;;-8.40;100.00;98534.47;5036021;28;20098;-59
2024/01/20 07:16:34;;;;;;;31.05;11.05;;;;;;;-8.50;100.00;98536.88;5037177;28;20074;-64
2024/01/20 07:19:01;;;;;;;17.20;9.65;;;;;;;-8.44;100.00;98540.88;5032278;28;20581;-63
2024/01/20 07:21:28;;;;;;;24.67;10.95;;;;;;;-8.20;100.00;98543.66;5035591;28;20767;-63
2024/01/20 07:23:55;;;;;;;22.73;10.80;;;;;;;-8.40;100.00;98547.63;5042233;28;20051;-62
2024/01/20 07:26:21;;;;;;;21.05;9.60;;;;;;;-8.60;100.00;98554.22;5033222;28;20068;-63
2024/01/20 07:28:48;;;;;;;19.00;9.30;;;;;;;-8.78;100.00;98554.44;5041180;28;20044;-63
2024/01/20 07:31:14;;;;;;;20.35;10.88;;;;;;;-8.82;100.00;98543.31;5035494;28;20045;-63
2024/01/20 07:33:41;;;;;;;24.38;10.38;;;;;;;-8.70;100.00;98551.34;5036669;28;20040;-63
2024/01/20 07:36:08;;;;;;;25.67;12.02;;;;;;;-8.72;100.00;98554.06;5032802;28;20583;-63
2024/01/20 07:38:35;;;;;;;18.85;10.90;;;;;;;-8.64;100.00;98556.19;5042697;28;20102;-64
2024/01/20 07:41:02;;;;;;;23.83;9.52;;;;;;;-8.30;100.00;98567.06;5043102;28;20044;-62
2024/01/20 07:43:28;;;;;;;26.80;12.55;;;;;;;-8.44;100.00;98573.22;5034618;28;20045;-63
2024/01/20 07:45:56;;;;;;;18.52;10.18;;;;;;;-8.47;100.00;98570.81;5034473;28;20053;-62
2024/01/20 07:48:23;;;;;;;24.13;11.98;;;;;;;-8.43;100.00;98571.44;5028131;28;20056;-61
2024/01/20 07:50:50;;;;;;;21.70;9.82;;;;;;;-8.26;100.00;98579.06;5035983;28;20041;-62
2024/01/20 07:53:17;;;;;;;22.58;12.93;;;;;;;-8.00;100.00;98583.53;5042529;28;20137;-62
2024/01/20 07:55:43;;;;;;;24.08;12.60;;;;;;;-8.12;100.00;98579.91;5039568;28;20091;-63
2024/01/20 07:58:10;;;;;;;23.85;10.57;;;;;;;-8.17;100.00;98576.75;5039026;28;20044;-61
2024/01/20 08:00:36;;;;;;;21.35;10.82;;;;;;;-8.00;100.00;98575.63;5033237;28;20042;-62
2024/01/20 08:03:03;;;;;;;17.42;10.48;;;;;;;-7.85;100.00;98579.00;5041028;28;20037;-60
2024/01/20 08:05:31;;;;;;;44.88;15.15;;;;;;;-7.47;100.00;98572.91;5036868;28;20045;-61
2024/01/20 08:08:01;;;;;;;30.60;12.90;;;;;;;-7.59;100.00;98574.56;5034737;28;20049;-62
2024/01/20 08:10:27;;;;;;;110.38;19.85;;;;;;;-7.47;100.00;98566.78;5032936;28;20056;-62
2024/01/20 08:12:55;;;;;;;33.95;11.98;;;;;;;-7.45;100.00;98578.88;5030325;28;20705;-62
2024/01/20 08:15:23;;;;;;;158.73;33.03;;;;;;;-7.08;100.00;98579.88;5030026;28;20099;-61
2024/01/20 08:17:50;;;;;;;167.75;25.55;;;;;;;-7.06;100.00;98578.81;5035447;28;20049;-62
2024/01/20 08:20:16;;;;;;;27.58;12.88;;;;;;;-7.39;100.00;98574.97;5028230;28;20147;-61
2024/01/20 08:22:43;;;;;;;23.67;11.95;;;;;;;-7.27;100.00;98575.06;5040335;28;20044;-63
2024/01/20 08:25:09;;;;;;;25.77;13.18;;;;;;;-7.03;100.00;98572.47;5035655;28;20123;-62
2024/01/20 08:27:36;;;;;;;24.92;12.35;;;;;;;-7.22;100.00;98581.66;5037972;28;20094;-62
2024/01/20 08:30:03;;;;;;;26.52;13.35;;;;;;;-7.24;100.00;98588.84;5036279;28;20041;-61
2024/01/20 08:32:30;;;;;;;26.45;12.85;;;;;;;-7.10;100.00;98592.28;5031833;28;20076;-62
2024/01/20 08:34:56;;;;;;;33.03;14.20;;;;;;;-7.12;100.00;98596.84;5027708;28;20050;-61
2024/01/20 08:37:23;;;;;;;28.00;13.18;;;;;;;-7.13;100.00;98596.00;5044188;28;20123;-62
2024/01/20 08:39:49;;;;;;;39.53;14.68;;;;;;;-6.83;100.00;98607.06;5037890;28;20056;-62
2024/01/20 08:42:16;;;;;;;32.28;12.65;;;;;;;-6.83;100.00;98613.19;5042011;28;20490;-60
2024/01/20 08:44:43;;;;;;;25.08;13.10;;;;;;;-6.61;100.00;98609.00;5035543;28;20057;-62
2024/01/20 08:47:10;;;;;;;28.00;12.13;;;;;;;-6.57;100.00;98614.88;5035434;28;20131;-61
2024/01/20 08:49:36;;;;;;;30.30;13.48;;;;;;;-6.45;100.00;98618.41;5038567;28;20052;-61
2024/01/20 08:52:03;;;;;;;26.65;13.68;;;;;;;-6.59;100.00;98625.53;5033090;28;20049;-60
2024/01/20 08:54:30;;;;;;;27.58;12.85;;;;;;;-6.58;100.00;98627.22;5036231;28;20059;-60
2024/01/20 08:56:56;;;;;;;25.95;13.13;;;;;;;-6.42;100.00;98626.94;5042002;28;20139;-62
2024/01/20 08:59:23;;;;;;;32.00;14.40;;;;;;;-6.33;100.00;98625.44;5040316;28;20586;-61
2024/01/20 09:01:50;;;;;;;26.60;12.27;;;;;;;-6.27;100.00;98627.59;5040593;28;20044;-62
2024/01/20 09:04:17;;;;;;;36.35;14.27;;;;;;;-6.04;100.00;98640.03;5034280;28;20057;-62
2024/01/20 09:06:43;;;;;;;33.90;14.50;;;;;;;-5.88;100.00;98637.06;5028632;28;20037;-62
2024/01/20 09:09:10;;;;;;;33.00;15.48;;;;;;;-5.70;100.00;98637.47;5039948;28;20119;-62
2024/01/20 09:11:36;;;;;;;21.60;11.60;;;;;;;-5.78;100.00;98643.31;5040561;28;20496;-62
2024/01/20 09:14:04;;;;;;;27.55;14.90;;;;;;;-5.61;100.00;98642.03;5034931;28;20111;-64
2024/01/20 09:16:31;;;;;;;35.38;14.50;;;;;;;-5.48;100.00;98647.22;5038562;28;20489;-61
2024/01/20 09:18:58;;;;;;;34.30;15.05;;;;;;;-5.51;100.00;98643.97;5044702;28;20045;-62
2024/01/20 09:21:25;;;;;;;30.50;14.05;;;;;;;-5.42;100.00;98645.91;5036710;28;20040;-62
2024/01/20 09:23:51;;;;;;;24.48;12.40;;;;;;;-5.53;100.00;98649.38;5036027;28;20124;-62
2024/01/20 09:26:18;;;;;;;26.95;12.85;;;;;;;-5.51;100.00;98657.16;5042460;28;20479;-61
2024/01/20 09:28:44;;;;;;;23.83;12.25;;;;;;;-5.59;100.00;98654.28;5041685;28;20086;-62
2024/01/20 09:31:11;;;;;;;30.08;14.40;;;;;;;-5.46;100.00;98655.00;5034456;28;20037;-62
2024/01/20 09:33:37;;;;;;;25.42;12.88;;;;;;;-5.37;100.00;98654.34;5030030;28;20059;-62
2024/01/20 09:36:04;;;;;;;25.88;14.32;;;;;;;-5.19;100.00;98651.22;5041818;28;20040;-62
2024/01/20 09:38:31;;;;;;;26.73;12.27;;;;;;;-5.14;100.00;98662.25;5034995;28;20080;-62
2024/01/20 09:40:58;;;;;;;31.65;13.02;;;;;;;-4.93;100.00;98660.69;5032401;28;20042;-62
2024/01/20 09:43:25;;;;;;;28.30;12.35;;;;;;;-4.90;100.00;98666.56;5039455;28;20049;-61
2024/01/20 09:45:52;;;;;;;30.95;13.60;;;;;;;-4.84;100.00;98668.75;5040524;28;20743;-62
2024/01/20 09:48:19;;;;;;;26.40;12.95;;;;;;;-4.78;100.00;98663.94;5037708;28;20049;-62
2024/01/20 09:50:47;;;;;;;34.65;14.93;;;;;;;-4.77;100.00;98670.88;5036547;28;20046;-61
2024/01/20 09:53:16;;;;;;;26.38;12.88;;;;;;;-4.70;100.00;98667.66;5028524;28;20045;-63
2024/01/20 09:55:44;;;;;;;26.65;13.55;;;;;;;-4.66;100.00;98668.25;5040895;28;20041;-61
2024/01/20 09:58:12;;;;;;;31.08;14.23;;;;;;;-4.63;100.00;98668.00;5042631;28;20040;-60
2024/01/20 10:00:40;;;;;;;27.73;13.50;;;;;;;-4.63;100.00;98668.00;5039666;28;20045;-62
2024/01/20 10:03:11;;;;;;;27.02;13.35;;;;;;;-4.90;100.00;98671.03;5047828;28;20049;-62
2024/01/20 10:05:38;;;;;;;27.67;14.10;;;;;;;-4.78;100.00;98669.22;5042025;28;20049;-63
2024/01/20 10:08:05;;;;;;;26.70;14.43;;;;;;;-4.67;100.00;98673.66;5050649;28;20044;-62
2024/01/20 10:10:32;;;;;;;25.50;13.38;;;;;;;-4.57;100.00;98672.78;5043208;28;20110;-63
2024/01/20 10:13:00;;;;;;;24.05;13.75;;;;;;;-4.51;100.00;98676.75;5052335;28;20055;-62
2024/01/20 10:15:30;;;;;;;23.80;12.55;;;;;;;-4.50;100.00;98683.72;5048357;28;20048;-63
2024/01/20 10:18:10;;;;;;;30.98;14.73;;;;;;;-4.53;100.00;98689.25;5036512;28;20075;-61
2024/01/20 10:20:37;;;;;;;26.25;12.93;;;;;;;-4.39;100.00;98687.31;5045907;28;20049;-62
2024/01/20 10:23:06;;;;;;;27.60;14.23;;;;;;;-4.28;100.00;98681.16;5046453;28;20046;-61
2024/01/20 10:25:33;;;;;;;30.50;13.88;;;;;;;-4.21;100.00;98682.31;5041989;28;20084;-62
2024/01/20 10:28:00;;;;;;;24.83;12.43;;;;;;;-4.11;100.00;98683.25;5044658;28;20037;-62
2024/01/20 10:30:28;;;;;;;27.10;13.40;;;;;;;-4.02;100.00;98680.84;5043192;28;20059;-61
2024/01/20 10:32:55;;;;;;;30.83;14.95;;;;;;;-3.91;100.00;98683.41;5038467;28;20098;-62
2024/01/20 10:35:35;;;;;;;22.98;12.32;;;;;;;-3.83;100.00;98682.81;5044890;28;20115;-62
2024/01/20 10:38:10;;;;;;;22.65;11.60;;;;;;;-3.73;100.00;98680.22;5041632;28;20037;-62
2024/01/20 10:40:37;;;;;;;27.63;12.65;;;;;;;-3.71;100.00;98683.56;5042929;28;20049;-62
2024/01/20 10:43:13;;;;;;;26.83;13.73;;;;;;;-3.65;100.00;98685.69;5044180;28;20043;-62
2024/01/20 10:45:46;;;;;;;25.63;14.05;;;;;;;-3.60;100.00;98686.19;5046676;28;20076;-62
2024/01/20 10:48:21;;;;;;;24.80;12.73;;;;;;;-3.76;100.00;98680.47;5048316;28;20059;-61
2024/01/20 10:50:58;;;;;;;29.77;13.05;;;;;;;-3.64;100.00;98679.47;5044322;28;20879;-62
2024/01/20 10:53:27;;;;;;;22.92;12.75;;;;;;;-3.60;100.00;98662.34;5046661;28;20278;-62
2024/01/20 10:55:55;;;;;;;24.38;12.50;;;;;;;-3.60;100.00;98657.06;5040255;28;20706;-62
2024/01/20 10:58:41;;;;;;;22.70;11.18;;;;;;;-3.45;100.00;98662.00;5045375;28;20043;-63
2024/01/20 11:01:09;;;;;;;26.98;13.55;;;;;;;-3.40;100.00;98659.81;5035846;28;20133;-62
2024/01/20 11:03:36;;;;;;;29.10;14.07;;;;;;;-3.26;100.00;98669.22;5039884;28;20065;-62
2024/01/20 11:06:03;;;;;;;23.67;12.20;;;;;;;-3.20;100.00;98666.06;5037561;28;20048;-62
2024/01/20 11:08:31;;;;;;;24.67;11.80;;;;;;;-3.10;100.00;98666.09;5044582;28;20048;-61
2024/01/20 11:10:59;;;;;;;23.02;11.15;;;;;;;-3.00;100.00;98674.09;5034703;28;20075;-62